createdAt,value
2022-09-12T00:01:21.207Z,95094.97
2022-09-12T00:03:48.601Z,95106.69
2022-09-12T00:06:37.548Z,95095.56
2022-09-12T00:09:12.851Z,95089.28
2022-09-12T00:11:43.807Z,95099.16
2022-09-12T00:14:16.360Z,95099.75
2022-09-12T00:16:44.226Z,95094.47
2022-09-12T00:19:12.733Z,95097.72
2022-09-12T00:21:41.804Z,95090.19
2022-09-12T00:24:10.583Z,95095.84
2022-09-12T00:26:38.033Z,95094.00
2022-09-12T00:29:05.209Z,95074.47
2022-09-12T00:31:32.640Z,95075.28
2022-09-12T00:34:03.460Z,95090.47
2022-09-12T00:36:31.202Z,95081.16
2022-09-12T00:38:59.005Z,95080.72
2022-09-12T00:41:37.237Z,95077.50
2022-09-12T00:44:24.394Z,95078.09
2022-09-12T00:47:10.991Z,95076.03
2022-09-12T00:50:01.625Z,95078.88
2022-09-12T00:52:44.640Z,95070.97
2022-09-12T00:55:21.561Z,95074.78
2022-09-12T00:57:58.204Z,95069.06
2022-09-12T01:00:27.822Z,95071.50
2022-09-12T01:03:01.317Z,95069.66
2022-09-12T01:05:31.551Z,95063.34
2022-09-12T01:08:01.249Z,95066.34
2022-09-12T01:10:29.925Z,95069.44
2022-09-12T01:12:57.949Z,95055.84
2022-09-12T01:15:25.009Z,95053.44
2022-09-12T01:18:35.119Z,95050.78
2022-09-12T01:21:36.401Z,95058.34
2022-09-12T01:24:51.717Z,95064.69
2022-09-12T01:27:44.524Z,95060.81
2022-09-12T01:30:47.744Z,95056.19
2022-09-12T01:33:38.999Z,95049.06
2022-09-12T01:36:12.035Z,95032.41
2022-09-12T01:38:55.555Z,95039.97
2022-09-12T01:41:43.875Z,95026.16
2022-09-12T01:44:17.301Z,95044.66
2022-09-12T01:47:08.632Z,95035.75
2022-09-12T01:49:52.473Z,95041.25
2022-09-12T01:52:37.587Z,95037.22
2022-09-12T01:55:13.740Z,95046.41
2022-09-12T01:58:03.697Z,95038.31
2022-09-12T02:00:34.709Z,95039.34
2022-09-12T02:03:12.473Z,95035.06
2022-09-12T02:05:50.514Z,95041.81
2022-09-12T02:08:23.129Z,95036.72
2022-09-12T02:10:59.395Z,95031.44
2022-09-12T02:13:37.124Z,95032.69
2022-09-12T02:16:12.890Z,95030.88
2022-09-12T02:18:49.307Z,95022.13
2022-09-12T02:21:20.127Z,95025.78
2022-09-12T02:23:53.945Z,95020.97
2022-09-12T02:26:32.548Z,95017.94
2022-09-12T02:28:59.734Z,95019.75
2022-09-12T02:31:36.951Z,95018.16
2022-09-12T02:35:07.568Z,95015.34
2022-09-12T02:38:00.157Z,95016.56
2022-09-12T02:40:28.025Z,95012.53
2022-09-12T02:42:55.501Z,95014.31
2022-09-12T02:45:23.911Z,95015.72
2022-09-12T02:48:02.545Z,95014.53
2022-09-12T02:50:30.129Z,95021.59
2022-09-12T02:53:03.863Z,95021.19
2022-09-12T02:55:35.844Z,95021.19
2022-09-12T02:58:08.244Z,95021.97
2022-09-12T03:00:46.417Z,95019.56
2022-09-12T03:03:58.289Z,95015.16
2022-09-12T03:07:09.383Z,95018.66
2022-09-12T03:09:44.141Z,95027.78
2022-09-12T03:12:35.879Z,95016.41
2022-09-12T03:15:26.029Z,95016.88
2022-09-12T03:18:53.240Z,95013.47
2022-09-12T03:21:30.428Z,95018.97
2022-09-12T03:24:12.431Z,95013.31
2022-09-12T03:27:09.176Z,95013.53
2022-09-12T03:29:38.981Z,95011.91
2022-09-12T03:32:07.484Z,95011.06
2022-09-12T03:34:34.763Z,95006.25
2022-09-12T03:37:02.363Z,95004.63
2022-09-12T03:39:29.506Z,95011.94
2022-09-12T03:41:57.784Z,95008.28
2022-09-12T03:44:25.669Z,95008.69
2022-09-12T03:46:52.973Z,95015.38
2022-09-12T03:49:19.926Z,95008.50
2022-09-12T03:51:46.878Z,95019.22
2022-09-12T03:54:14.018Z,95025.13
2022-09-12T03:56:41.585Z,95022.91
2022-09-12T03:59:09.025Z,95031.00
2022-09-12T04:01:35.934Z,95017.81
2022-09-12T04:04:03.570Z,95021.06
2022-09-12T04:06:31.387Z,95017.81
2022-09-12T04:08:58.584Z,95019.81
2022-09-12T04:11:25.706Z,95021.22
2022-09-12T04:13:52.841Z,95021.00
2022-09-12T04:16:20.279Z,95024.81
2022-09-12T04:18:47.603Z,95013.06
2022-09-12T04:21:18.540Z,95017.88
2022-09-12T04:23:46.219Z,95024.34
2022-09-12T04:26:14.478Z,95015.78
2022-09-12T04:28:42.213Z,95006.47
2022-09-12T04:31:17.648Z,95016.16
2022-09-12T04:33:45.673Z,95016.09
2022-09-12T04:36:17.801Z,94997.22
2022-09-12T04:38:46.747Z,95008.69
2022-09-12T04:41:20.267Z,95013.16
2022-09-12T04:43:48.589Z,95018.78
2022-09-12T04:46:20.006Z,95003.53
2022-09-12T04:48:50.518Z,95009.56
2022-09-12T04:51:30.262Z,95011.56
2022-09-12T04:54:01.460Z,95005.03
2022-09-12T04:56:30.013Z,95005.41
2022-09-12T04:59:00.182Z,95007.03
2022-09-12T05:01:30.232Z,95017.97
2022-09-12T05:03:59.791Z,95016.13
2022-09-12T05:06:30.586Z,95022.00
2022-09-12T05:08:58.819Z,95023.81
2022-09-12T05:11:46.727Z,95023.81
2022-09-12T05:14:14.143Z,95022.16
2022-09-12T05:16:41.270Z,95017.47
2022-09-12T05:19:11.175Z,95021.03
2022-09-12T05:21:38.838Z,95030.75
2022-09-12T05:24:06.626Z,95029.50
2022-09-12T05:26:36.141Z,95041.25
2022-09-12T05:29:07.085Z,95034.34
2022-09-12T05:31:36.163Z,95039.78
2022-09-12T05:34:12.300Z,95041.19
2022-09-12T05:36:39.272Z,95037.50
2022-09-12T05:39:06.599Z,95037.88
2022-09-12T05:41:36.970Z,95048.63
2022-09-12T05:44:06.710Z,95052.19
2022-09-12T05:46:43.665Z,95061.31
2022-09-12T05:49:13.417Z,95056.81
2022-09-12T05:51:45.346Z,95051.66
2022-09-12T05:54:19.366Z,95051.00
2022-09-12T05:56:47.833Z,95044.81
2022-09-12T05:59:21.294Z,95054.50
2022-09-12T06:01:49.039Z,95049.56
2022-09-12T06:04:16.399Z,95053.75
2022-09-12T06:06:45.469Z,95049.03
2022-09-12T06:09:17.181Z,95047.56
2022-09-12T06:11:45.914Z,95051.50
2022-09-12T06:14:16.201Z,95050.81
2022-09-12T06:16:43.503Z,95050.03
2022-09-12T06:19:21.773Z,95054.28
2022-09-12T06:21:49.937Z,95049.00
2022-09-12T06:24:18.482Z,95049.94
2022-09-12T06:26:47.110Z,95046.03
2022-09-12T06:29:14.675Z,95046.94
2022-09-12T06:31:43.833Z,95047.09
2022-09-12T06:34:14.235Z,95050.66
2022-09-12T06:36:46.169Z,95049.66
2022-09-12T06:39:17.036Z,95049.53
2022-09-12T06:41:45.483Z,95054.94
2022-09-12T06:44:16.284Z,95053.91
2022-09-12T06:46:44.537Z,95051.38
2022-09-12T06:49:11.907Z,95049.31
2022-09-12T06:51:39.133Z,95049.56
2022-09-12T06:54:06.775Z,95047.28
2022-09-12T06:56:34.806Z,95049.63
2022-09-12T06:59:01.941Z,95050.66
2022-09-12T07:01:31.564Z,95055.28
2022-09-12T07:04:04.213Z,95057.25
2022-09-12T07:06:40.896Z,95054.13
2022-09-12T07:09:12.703Z,95049.75
2022-09-12T07:11:42.009Z,95057.38
2022-09-12T07:14:13.940Z,95051.72
2022-09-12T07:16:41.167Z,95061.19
2022-09-12T07:19:09.502Z,95053.69
2022-09-12T07:21:40.206Z,95053.34
2022-09-12T07:24:09.687Z,95057.47
2022-09-12T07:26:40.232Z,95066.69
2022-09-12T07:29:34.833Z,95067.13
2022-09-12T07:31:56.440Z,95075.78
2022-09-12T07:34:23.397Z,95073.22
2022-09-12T07:36:51.177Z,95070.00
2022-09-12T07:39:18.353Z,95071.38
2022-09-12T07:41:45.330Z,95077.47
2022-09-12T07:44:12.311Z,95074.09
2022-09-12T07:46:42.377Z,95074.44
2022-09-12T07:49:12.045Z,95074.31
2022-09-12T07:51:39.282Z,95069.34
2022-09-12T07:54:10.313Z,95068.84
2022-09-12T07:56:39.443Z,95075.31
2022-09-12T07:59:08.178Z,95072.41
2022-09-12T08:01:36.183Z,95074.81
2022-09-12T08:04:05.009Z,95073.09
2022-09-12T08:06:36.218Z,95067.38
2022-09-12T08:09:04.293Z,95071.59
2022-09-12T08:11:31.829Z,95075.38
2022-09-12T08:14:01.260Z,95072.72
2022-09-12T08:16:31.276Z,95066.53
2022-09-12T08:19:01.138Z,95071.25
2022-09-12T08:21:33.275Z,95075.44
2022-09-12T08:24:04.097Z,95073.91
2022-09-12T08:26:32.972Z,95076.66
2022-09-12T08:29:01.780Z,95077.81
2022-09-12T08:31:36.476Z,95090.09
2022-09-12T08:34:07.425Z,95082.03
2022-09-12T08:36:35.334Z,95086.56
2022-09-12T08:39:06.510Z,95092.44
2022-09-12T08:41:49.029Z,95080.34
2022-09-12T08:44:40.207Z,95083.38
2022-09-12T08:47:19.547Z,95073.78
2022-09-12T08:50:16.395Z,95085.06
2022-09-12T08:53:03.462Z,95083.22
2022-09-12T08:55:44.917Z,95087.00
2022-09-12T08:58:25.396Z,95070.13
2022-09-12T09:01:03.728Z,95084.28
2022-09-12T09:04:08.145Z,95082.19
2022-09-12T09:07:03.992Z,95085.06
2022-09-12T09:10:07.732Z,95080.06
2022-09-12T09:13:14.352Z,95074.78
2022-09-12T09:16:00.877Z,95076.97
2022-09-12T09:18:36.127Z,95066.69
2022-09-12T09:21:22.455Z,95060.69
2022-09-12T09:24:00.051Z,95072.31
2022-09-12T09:26:41.721Z,95067.63
2022-09-12T09:29:21.584Z,95056.84
2022-09-12T09:31:53.596Z,95063.84
2022-09-12T09:34:23.231Z,95060.59
2022-09-12T09:37:01.295Z,95066.81
2022-09-12T09:39:49.300Z,95061.69
2022-09-12T09:45:24.327Z,95060.13
2022-09-12T09:48:23.581Z,95054.72
2022-09-12T09:50:51.257Z,95054.47
2022-09-12T09:53:42.653Z,95053.19
2022-09-12T09:56:21.511Z,95044.97
2022-09-12T09:58:50.395Z,95040.81
2022-09-12T10:01:19.391Z,95043.56
2022-09-12T10:03:55.249Z,95041.47
2022-09-12T10:06:32.774Z,95037.44
2022-09-12T10:09:15.001Z,95040.91
2022-09-12T10:11:45.776Z,95050.50
2022-09-12T10:14:43.149Z,95035.34
2022-09-12T10:17:39.541Z,95043.72
2022-09-12T10:20:38.067Z,95050.13
2022-09-12T10:23:23.736Z,95043.50
2022-09-12T10:25:58.348Z,95042.19
2022-09-12T10:28:43.533Z,95036.09
2022-09-12T10:31:17.215Z,95045.44
2022-09-12T10:33:53.734Z,95043.06
2022-09-12T10:36:21.906Z,95045.28
2022-09-12T10:38:54.966Z,95039.22
2022-09-12T10:41:22.172Z,95036.38
2022-09-12T10:43:49.562Z,95039.09
2022-09-12T10:46:16.696Z,95046.94
2022-09-12T10:49:13.508Z,95040.00
2022-09-12T10:51:40.829Z,95041.41
2022-09-12T10:54:11.685Z,95047.59
2022-09-12T10:57:21.985Z,95039.59
2022-09-12T11:00:16.741Z,95036.41
2022-09-12T11:03:07.117Z,95043.41
2022-09-12T11:06:01.547Z,95034.91
2022-09-12T11:09:13.166Z,95048.56
2022-09-12T11:12:02.379Z,95033.91
2022-09-12T11:14:41.185Z,95034.97
2022-09-12T11:17:44.233Z,95045.38
2022-09-12T11:21:09.544Z,95034.41
2022-09-12T11:23:45.560Z,95042.94
2022-09-12T11:26:24.364Z,95033.06
2022-09-12T11:29:38.240Z,95028.00
2022-09-12T11:32:30.020Z,95025.91
2022-09-12T11:35:27.899Z,95023.50
2022-09-12T11:38:30.623Z,95028.31
2022-09-12T11:41:06.481Z,95028.59
2022-09-12T11:43:45.615Z,95029.66
2022-09-12T11:46:36.409Z,95018.19
2022-09-12T11:49:09.420Z,95025.44
2022-09-12T11:51:52.677Z,95018.81
2022-09-12T11:54:53.940Z,95021.25
2022-09-12T11:57:42.787Z,95016.19
2022-09-12T12:00:37.947Z,95027.41
2022-09-12T12:03:45.349Z,95015.94
2022-09-12T12:06:33.025Z,95013.53
2022-09-12T12:09:00.327Z,95013.25
2022-09-12T12:11:31.492Z,95012.75
2022-09-12T12:14:43.701Z,95001.25
2022-09-12T12:17:20.356Z,95010.88
2022-09-12T12:20:02.166Z,95011.91
2022-09-12T12:22:32.369Z,95006.50
2022-09-12T12:25:18.359Z,94991.97
2022-09-12T12:28:01.847Z,95000.72
2022-09-12T12:30:33.479Z,94992.56
2022-09-12T12:33:13.183Z,94989.50
2022-09-12T12:36:01.765Z,94994.75
2022-09-12T12:38:36.202Z,94990.84
2022-09-12T12:41:18.708Z,94980.41
2022-09-12T12:43:46.918Z,94976.53
2022-09-12T12:46:19.587Z,94977.13
2022-09-12T12:49:11.273Z,94975.22
2022-09-12T12:52:01.591Z,94966.00
2022-09-12T12:54:52.182Z,94964.97
2022-09-12T12:57:22.203Z,94973.63
2022-09-12T13:00:06.629Z,94968.44
2022-09-12T13:02:40.246Z,94957.94
2022-09-12T13:05:20.592Z,94947.63
2022-09-12T13:07:57.399Z,94954.53
2022-09-12T13:10:31.575Z,94942.69
2022-09-12T13:13:05.159Z,94938.38
2022-09-12T13:15:38.122Z,94944.19
2022-09-12T13:18:25.926Z,94935.78
2022-09-12T13:21:04.785Z,94943.09
2022-09-12T13:23:33.993Z,94941.25
2022-09-12T13:26:02.793Z,94936.88
2022-09-12T13:28:31.254Z,94941.22
2022-09-12T13:31:19.149Z,94941.41
2022-09-12T13:34:00.051Z,94928.81
2022-09-12T13:37:21.345Z,94931.16
2022-09-12T13:40:15.195Z,94930.53
2022-09-12T13:42:51.623Z,94930.72
2022-09-12T13:45:27.493Z,94918.13
2022-09-12T13:48:00.136Z,94923.13
2022-09-12T13:50:37.345Z,94919.28
2022-09-12T13:53:12.589Z,94920.00
2022-09-12T13:55:43.272Z,94919.78
2022-09-12T13:58:28.537Z,94911.13
2022-09-12T14:01:10.707Z,94917.03
2022-09-12T14:04:14.433Z,94915.44
2022-09-12T14:06:51.632Z,94913.25
2022-09-12T14:09:40.306Z,94909.22
2022-09-12T14:12:25.153Z,94909.81
2022-09-12T14:14:53.383Z,94907.13
2022-09-12T14:17:36.345Z,94902.00
2022-09-12T14:20:14.652Z,94911.81
2022-09-12T14:22:41.960Z,94899.78
2022-09-12T14:25:25.039Z,94903.88
2022-09-12T14:27:55.576Z,94902.41
2022-09-12T14:30:31.927Z,94904.94
2022-09-12T14:33:20.770Z,94901.56
2022-09-12T14:36:10.555Z,94901.66
2022-09-12T14:38:46.124Z,94898.22
2022-09-12T14:41:39.418Z,94901.97
2022-09-12T14:44:14.873Z,94899.59
2022-09-12T14:46:44.418Z,94902.44
2022-09-12T14:49:32.405Z,94899.28
2022-09-12T14:52:02.496Z,94908.91
2022-09-12T14:54:37.347Z,94907.69
2022-09-12T14:57:34.738Z,94902.13
2022-09-12T15:00:14.295Z,94903.75
2022-09-12T15:02:44.777Z,94894.44
2022-09-12T15:05:11.773Z,94896.22
2022-09-12T15:07:53.615Z,94898.69
2022-09-12T15:10:32.299Z,94890.53
2022-09-12T15:13:14.286Z,94894.41
2022-09-12T15:15:50.745Z,94888.38
2022-09-12T15:18:22.544Z,94892.38
2022-09-12T15:20:54.715Z,94876.91
2022-09-12T15:23:38.138Z,94881.13
2022-09-12T15:26:05.727Z,94871.84
2022-09-12T15:28:33.892Z,94880.78
2022-09-12T15:31:07.699Z,94879.88
2022-09-12T15:33:34.932Z,94888.00
2022-09-12T15:36:02.261Z,94877.38
2022-09-12T15:38:30.187Z,94881.59
2022-09-12T15:40:57.423Z,94884.88
2022-09-12T15:43:26.420Z,94883.28
2022-09-12T15:45:55.362Z,94892.75
2022-09-12T15:48:25.860Z,94899.41
2022-09-12T15:50:52.902Z,94896.91
2022-09-12T15:53:19.937Z,94897.16
2022-09-12T15:55:47.098Z,94890.78
2022-09-12T15:58:14.214Z,94894.88
2022-09-12T16:00:41.605Z,94894.94
2022-09-12T16:03:23.999Z,94890.34
2022-09-12T16:05:57.274Z,94900.06
2022-09-12T16:08:24.552Z,94899.81
2022-09-12T16:10:56.817Z,94893.66
2022-09-12T16:13:24.581Z,94899.72
2022-09-12T16:15:52.785Z,94903.16
2022-09-12T16:18:20.014Z,94911.78
2022-09-12T16:20:47.122Z,94911.84
2022-09-12T16:23:14.245Z,94915.03
2022-09-12T16:25:41.161Z,94911.13
2022-09-12T16:28:08.391Z,94915.81
2022-09-12T16:30:36.382Z,94904.91
2022-09-12T16:33:04.157Z,94905.50
2022-09-12T16:35:32.915Z,94902.56
2022-09-12T16:38:01.082Z,94898.25
2022-09-12T16:40:28.243Z,94897.72
2022-09-12T16:42:55.152Z,94893.31
2022-09-12T16:45:22.260Z,94892.97
2022-09-12T16:47:49.221Z,94898.47
2022-09-12T16:50:16.294Z,94894.56
2022-09-12T16:52:43.321Z,94898.16
2022-09-12T16:55:10.303Z,94904.66
2022-09-12T16:57:37.460Z,94911.38
2022-09-12T17:00:06.706Z,94912.72
2022-09-12T17:02:34.362Z,94906.56
2022-09-12T17:05:01.784Z,94897.72
2022-09-12T17:07:28.768Z,94900.38
2022-09-12T17:09:55.708Z,94906.25
2022-09-12T17:12:24.065Z,94912.59
2022-09-12T17:14:50.944Z,94898.94
2022-09-12T17:17:18.189Z,94900.44
2022-09-12T17:19:45.204Z,94897.97
2022-09-12T17:22:12.317Z,94903.81
2022-09-12T17:24:40.684Z,94902.16
2022-09-12T17:27:07.972Z,94894.06
2022-09-12T17:29:36.786Z,94899.63
2022-09-12T17:32:04.071Z,94905.69
2022-09-12T17:34:32.468Z,94906.09
2022-09-12T17:36:59.922Z,94904.41
2022-09-12T17:39:27.015Z,94904.03
2022-09-12T17:41:57.445Z,94908.72
2022-09-12T17:44:24.632Z,94914.22
2022-09-12T17:46:51.695Z,94919.44
2022-09-12T17:49:20.859Z,94919.34
2022-09-12T17:51:48.629Z,94924.56
2022-09-12T17:54:18.356Z,94920.69
2022-09-12T17:56:49.728Z,94918.16
2022-09-12T17:59:20.709Z,94918.31
2022-09-12T18:02:06.622Z,94924.06
2022-09-12T18:04:34.139Z,94925.00
2022-09-12T18:07:01.373Z,94920.09
2022-09-12T18:09:28.772Z,94924.53
2022-09-12T18:11:55.802Z,94922.28
2022-09-12T18:14:23.815Z,94926.16
2022-09-12T18:16:52.372Z,94921.25
2022-09-12T18:19:20.153Z,94921.41
2022-09-12T18:21:47.384Z,94929.31
2022-09-12T18:24:14.638Z,94927.06
2022-09-12T18:26:44.021Z,94924.88
2022-09-12T18:29:12.801Z,94931.75
2022-09-12T18:31:39.838Z,94925.00
2022-09-12T18:34:12.663Z,94922.00
2022-09-12T18:36:45.794Z,94921.44
2022-09-12T18:39:14.164Z,94920.78
2022-09-12T18:41:41.857Z,94931.41
2022-09-12T18:44:11.767Z,94927.38
2022-09-12T18:46:38.738Z,94929.97
2022-09-12T18:49:07.869Z,94929.31
2022-09-12T18:51:37.379Z,94936.13
2022-09-12T18:54:10.065Z,94932.03
2022-09-12T18:56:39.239Z,94935.06
2022-09-12T18:59:11.403Z,94934.19
2022-09-12T19:01:39.288Z,94934.06
2022-09-12T19:04:09.078Z,94940.91
2022-09-12T19:06:46.276Z,94940.22
2022-09-12T19:09:17.612Z,94942.78
2022-09-12T19:11:50.390Z,94938.19
2022-09-12T19:14:23.672Z,94939.91
2022-09-12T19:16:52.104Z,94936.94
2022-09-12T19:19:21.398Z,94936.59
2022-09-12T19:21:48.436Z,94938.69
2022-09-12T19:24:16.598Z,94934.44
2022-09-12T19:26:44.817Z,94929.69
2022-09-12T19:29:14.073Z,94935.81
2022-09-12T19:31:41.047Z,94929.38
2022-09-12T19:34:08.527Z,94929.56
2022-09-12T19:36:51.695Z,94926.03
2022-09-12T19:39:19.753Z,94928.59
2022-09-12T19:41:47.829Z,94922.63
2022-09-12T19:44:15.016Z,94917.66
2022-09-12T19:46:42.411Z,94910.66
2022-09-12T19:49:12.206Z,94919.88
2022-09-12T19:51:39.268Z,94911.69
2022-09-12T19:54:08.048Z,94912.41
2022-09-12T19:56:35.244Z,94911.84
2022-09-12T19:59:03.406Z,94910.13
2022-09-12T20:01:30.505Z,94921.41
2022-09-12T20:03:58.774Z,94921.06
2022-09-12T20:06:26.744Z,94923.00
2022-09-12T20:08:55.176Z,94922.88
2022-09-12T20:11:24.119Z,94932.31
2022-09-12T20:13:51.793Z,94931.97
2022-09-12T20:16:22.481Z,94934.84
2022-09-12T20:18:55.621Z,94934.50
2022-09-12T20:21:25.842Z,94924.38
2022-09-12T20:23:53.037Z,94929.69
2022-09-12T20:26:20.512Z,94929.09
2022-09-12T20:28:48.536Z,94921.16
2022-09-12T20:31:16.555Z,94918.75
2022-09-12T20:33:45.814Z,94923.44
2022-09-12T20:36:18.391Z,94927.94
2022-09-12T20:38:54.054Z,94920.22
2022-09-12T20:41:21.772Z,94921.72
2022-09-12T20:43:54.235Z,94917.94
2022-09-12T20:46:22.926Z,94916.41
2022-09-12T20:48:51.400Z,94917.44
2022-09-12T20:51:20.363Z,94913.03
2022-09-12T20:53:48.661Z,94918.00
2022-09-12T20:56:15.710Z,94912.56
2022-09-12T20:58:44.518Z,94923.84
2022-09-12T21:01:14.055Z,94921.44
2022-09-12T21:03:42.454Z,94926.59
2022-09-12T21:06:12.520Z,94922.78
2022-09-12T21:08:40.229Z,94925.66
2022-09-12T21:11:07.297Z,94923.69
2022-09-12T21:13:35.044Z,94921.03
2022-09-12T21:16:08.897Z,94924.69
2022-09-12T21:18:37.477Z,94929.56
2022-09-12T21:21:07.096Z,94933.00
2022-09-12T21:23:34.773Z,94929.31
2022-09-12T21:26:02.993Z,94926.69
2022-09-12T21:28:30.993Z,94920.81
2022-09-12T21:30:58.279Z,94925.06
2022-09-12T21:33:25.808Z,94924.28
2022-09-12T21:35:52.963Z,94933.81
2022-09-12T21:38:20.976Z,94923.69
2022-09-12T21:40:48.049Z,94921.03
2022-09-12T21:43:15.507Z,94916.34
2022-09-12T21:45:42.961Z,94922.41
2022-09-12T21:48:09.930Z,94928.53
2022-09-12T21:50:37.002Z,94923.81
2022-09-12T21:53:04.368Z,94914.28
2022-09-12T21:55:31.684Z,94911.63
2022-09-12T21:57:58.598Z,94908.63
2022-09-12T22:00:25.947Z,94912.75
2022-09-12T22:02:53.727Z,94897.41
2022-09-12T22:05:22.553Z,94909.84
2022-09-12T22:07:49.492Z,94904.63
2022-09-12T22:10:16.787Z,94909.16
2022-09-12T22:12:46.197Z,94903.97
2022-09-12T22:15:38.878Z,94904.88
2022-09-12T22:18:00.902Z,94901.28
2022-09-12T22:20:28.216Z,94905.66
2022-09-12T22:23:13.850Z,94907.09
2022-09-12T22:25:41.060Z,94902.34
2022-09-12T22:28:08.109Z,94900.34
2022-09-12T22:30:35.418Z,94895.53
2022-09-12T22:33:02.687Z,94900.44
2022-09-12T22:35:29.984Z,94890.53
2022-09-12T22:37:56.881Z,94892.03
2022-09-12T22:40:24.161Z,94888.19
2022-09-12T22:42:54.296Z,94879.91
2022-09-12T22:45:21.376Z,94881.38
2022-09-12T22:47:48.345Z,94871.91
2022-09-12T22:50:16.046Z,94869.47
2022-09-12T22:52:42.921Z,94876.25
2022-09-12T22:55:10.465Z,94875.28
2022-09-12T22:57:37.906Z,94872.72
2022-09-12T23:00:12.299Z,94873.59
2022-09-12T23:02:39.393Z,94862.06
2022-09-12T23:05:06.689Z,94866.16
2022-09-12T23:07:34.069Z,94865.19
2022-09-12T23:10:02.821Z,94870.69
2022-09-12T23:12:32.055Z,94867.66
2022-09-12T23:14:59.007Z,94863.41
2022-09-12T23:17:26.269Z,94868.69
2022-09-12T23:19:53.616Z,94862.25
2022-09-12T23:22:20.794Z,94859.00
2022-09-12T23:24:48.292Z,94859.78
2022-09-12T23:27:15.557Z,94864.69
2022-09-12T23:29:42.824Z,94861.50
2022-09-12T23:32:09.789Z,94864.78
2022-09-12T23:34:36.737Z,94861.53
2022-09-12T23:37:03.842Z,94854.47
2022-09-12T23:39:31.764Z,94856.31
2022-09-12T23:41:58.987Z,94860.22
2022-09-12T23:44:26.637Z,94849.69
2022-09-12T23:46:53.765Z,94856.22
2022-09-12T23:49:20.886Z,94847.94
2022-09-12T23:51:47.772Z,94853.63
2022-09-12T23:54:15.222Z,94853.84
2022-09-12T23:56:42.168Z,94852.66
2022-09-12T23:59:09.298Z,94861.00
